Terminal Aerodrome Forecast
Issued by NWS

Home | Current Version | Previous Version | Text Only | Print | Product List | Glossary On
Versions: 1 2 3 4 5 6 7 8 9 10 11 12
341
FTUS45 KRIW 250523
TAFCPR
TAF
KCPR 250523Z 2506/2606 VRB05KT P6SM SKC
     FM251600 25006KT P6SM SKC
     FM252000 28010KT P6SM SCT110
     FM260100 36006KT P6SM SCT110=

USA.gov is the U.S. government's official web portal to all federal, state and local government web resources and services.